Аэропорт: Хабаровск-Новый. Хабаровск

ICAO: UHHH

METAR:
2019-07-23 18:30:00
UHHH 231830Z 04008MPS 9000 -SHRA BKN007 OVC020CB 15/15 Q1002 R05R/090060 NOSIG RMK QFE745/0994
METAR:
2019-07-23 17:00:00
TAF UHHH 231700Z 2318/2424 04008MPS 5000 -SHRA BKN006 BKN020CB TEMPO 2318/2324 05008G13MPS 2000 SHRA BKN005 BKN015CB TEMPO 2400/2415 06010G15MPS 2000 SHRA